sensor_id;sensor_type;location;lat;lon;timestamp;temperature;humidity
7427;DHT22;3755;59.316;18.092;2024-01-15T00:00:44;-3.80;99.90
7427;DHT22;3755;59.316;18.092;2024-01-15T00:03:12;-3.80;99.90
7427;DHT22;3755;59.316;18.092;2024-01-15T00:05:39;-3.80;99.90
7427;DHT22;3755;59.316;18.092;2024-01-15T00:08:06;-3.90;99.90
7427;DHT22;3755;59.316;18.092;2024-01-15T00:10:34;-3.90;99.90
7427;DHT22;3755;59.316;18.092;2024-01-15T00:13:01;-3.90;99.90
7427;DHT22;3755;59.316;18.092;2024-01-15T00:15:28;-3.90;99.90
7427;DHT22;3755;59.316;18.092;2024-01-15T00:17:56;-3.90;99.90
7427;DHT22;3755;59.316;18.092;2024-01-15T00:20:24;-3.90;99.90
7427;DHT22;3755;59.316;18.092;2024-01-15T00:22:51;-3.90;99.90
7427;DHT22;3755;59.316;18.092;2024-01-15T00:25:18;-4.00;99.90
7427;DHT22;3755;59.316;18.092;2024-01-15T00:27:47;-4.00;99.90
7427;DHT22;3755;59.316;18.092;2024-01-15T00:30:14;-4.00;99.90
7427;DHT22;3755;59.316;18.092;2024-01-15T00:32:41;-4.00;99.90
7427;DHT22;3755;59.316;18.092;2024-01-15T00:35:09;-4.00;99.90
7427;DHT22;3755;59.316;18.092;2024-01-15T00:37:36;-4.00;99.90
7427;DHT22;3755;59.316;18.092;2024-01-15T00:40:04;-4.00;99.90
7427;DHT22;3755;59.316;18.092;2024-01-15T00:42:33;-4.00;99.90
7427;DHT22;3755;59.316;18.092;2024-01-15T00:45:02;-4.00;99.90
7427;DHT22;3755;59.316;18.092;2024-01-15T00:47:31;-4.00;99.90
7427;DHT22;3755;59.316;18.092;2024-01-15T00:49:58;-4.10;99.90
7427;DHT22;3755;59.316;18.092;2024-01-15T00:52:25;-4.10;99.90
7427;DHT22;3755;59.316;18.092;2024-01-15T00:54:52;-4.10;99.90
7427;DHT22;3755;59.316;18.092;2024-01-15T00:57:19;-4.00;99.90
7427;DHT22;3755;59.316;18.092;2024-01-15T00:59:47;-4.10;99.90
7427;DHT22;3755;59.316;18.092;2024-01-15T01:02:15;-4.00;99.90
7427;DHT22;3755;59.316;18.092;2024-01-15T01:04:42;-4.10;99.90
7427;DHT22;3755;59.316;18.092;2024-01-15T01:07:10;-4.10;99.90
7427;DHT22;3755;59.316;18.092;2024-01-15T01:09:37;-4.10;99.90
7427;DHT22;3755;59.316;18.092;2024-01-15T01:12:05;-4.10;99.90
7427;DHT22;3755;59.316;18.092;2024-01-15T01:14:34;-4.10;99.90
7427;DHT22;3755;59.316;18.092;2024-01-15T01:17:01;-4.10;99.90
7427;DHT22;3755;59.316;18.092;2024-01-15T01:19:29;-4.10;99.90
7427;DHT22;3755;59.316;18.092;2024-01-15T01:21:57;-4.10;99.90
7427;DHT22;3755;59.316;18.092;2024-01-15T01:24:24;-4.10;99.90
7427;DHT22;3755;59.316;18.092;2024-01-15T01:26:51;-4.10;99.90
7427;DHT22;3755;59.316;18.092;2024-01-15T01:29:18;-4.10;99.90
7427;DHT22;3755;59.316;18.092;2024-01-15T01:31:45;-4.20;99.90
7427;DHT22;3755;59.316;18.092;2024-01-15T01:34:14;-4.20;99.90
7427;DHT22;3755;59.316;18.092;2024-01-15T01:36:43;-4.20;99.90
7427;DHT22;3755;59.316;18.092;2024-01-15T01:39:10;-4.20;99.90
7427;DHT22;3755;59.316;18.092;2024-01-15T01:41:38;-4.10;99.90
7427;DHT22;3755;59.316;18.092;2024-01-15T01:44:05;-4.30;99.90
7427;DHT22;3755;59.316;18.092;2024-01-15T01:46:33;-4.20;99.90
7427;DHT22;3755;59.316;18.092;2024-01-15T01:49:00;-4.40;99.90
7427;DHT22;3755;59.316;18.092;2024-01-15T01:51:31;-4.00;99.90
7427;DHT22;3755;59.316;18.092;2024-01-15T01:54:00;-4.30;99.90
7427;DHT22;3755;59.316;18.092;2024-01-15T01:56:27;-4.30;99.90
7427;DHT22;3755;59.316;18.092;2024-01-15T01:58:55;-4.30;99.90
7427;DHT22;3755;59.316;18.092;2024-01-15T02:01:22;-4.30;99.90
7427;DHT22;3755;59.316;18.092;2024-01-15T02:03:49;-4.30;99.90
7427;DHT22;3755;59.316;18.092;2024-01-15T02:06:17;-3.70;99.90
7427;DHT22;3755;59.316;18.092;2024-01-15T02:08:44;-4.20;99.90
7427;DHT22;3755;59.316;18.092;2024-01-15T02:11:12;-4.30;99.90
7427;DHT22;3755;59.316;18.092;2024-01-15T02:13:40;-4.30;99.90
7427;DHT22;3755;59.316;18.092;2024-01-15T02:16:07;-4.30;99.90
7427;DHT22;3755;59.316;18.092;2024-01-15T02:18:40;-4.30;99.90
7427;DHT22;3755;59.316;18.092;2024-01-15T02:21:08;-4.30;99.90
7427;DHT22;3755;59.316;18.092;2024-01-15T02:23:36;-4.30;99.90
7427;DHT22;3755;59.316;18.092;2024-01-15T02:26:04;-4.30;99.90
7427;DHT22;3755;59.316;18.092;2024-01-15T02:28:33;-4.30;99.90
7427;DHT22;3755;59.316;18.092;2024-01-15T02:31:00;-4.40;99.90
7427;DHT22;3755;59.316;18.092;2024-01-15T02:33:27;-4.40;99.90
7427;DHT22;3755;59.316;18.092;2024-01-15T02:35:54;-4.40;99.90
7427;DHT22;3755;59.316;18.092;2024-01-15T02:38:21;-4.40;99.90
7427;DHT22;3755;59.316;18.092;2024-01-15T02:40:50;-4.30;99.90
7427;DHT22;3755;59.316;18.092;2024-01-15T02:43:17;-4.30;99.90
7427;DHT22;3755;59.316;18.092;2024-01-15T02:45:45;-4.30;99.90
7427;DHT22;3755;59.316;18.092;2024-01-15T02:48:13;-4.40;99.90
7427;DHT22;3755;59.316;18.092;2024-01-15T02:50:40;-4.40;99.90
7427;DHT22;3755;59.316;18.092;2024-01-15T02:53:07;-4.40;99.90
7427;DHT22;3755;59.316;18.092;2024-01-15T02:55:34;-4.40;99.90
7427;DHT22;3755;59.316;18.092;2024-01-15T02:58:03;-4.50;99.90
7427;DHT22;3755;59.316;18.092;2024-01-15T03:00:30;-4.40;99.90
7427;DHT22;3755;59.316;18.092;2024-01-15T03:02:57;-4.40;99.90
7427;DHT22;3755;59.316;18.092;2024-01-15T03:05:24;-4.40;99.90
7427;DHT22;3755;59.316;18.092;2024-01-15T03:07:51;-4.40;99.90
7427;DHT22;3755;59.316;18.092;2024-01-15T03:10:18;-4.40;99.90
7427;DHT22;3755;59.316;18.092;2024-01-15T03:12:47;-4.50;99.90
7427;DHT22;3755;59.316;18.092;2024-01-15T03:15:15;-4.50;99.90
7427;DHT22;3755;59.316;18.092;2024-01-15T03:17:44;-4.40;99.90
7427;DHT22;3755;59.316;18.092;2024-01-15T03:20:11;-4.50;99.90
7427;DHT22;3755;59.316;18.092;2024-01-15T03:22:38;-4.50;99.90
7427;DHT22;3755;59.316;18.092;2024-01-15T03:25:06;-4.40;99.90
7427;DHT22;3755;59.316;18.092;2024-01-15T03:27:34;-4.50;99.90
7427;DHT22;3755;59.316;18.092;2024-01-15T03:30:01;-4.50;99.90
7427;DHT22;3755;59.316;18.092;2024-01-15T03:32:31;-4.50;99.90
7427;DHT22;3755;59.316;18.092;2024-01-15T03:34:58;-4.50;99.90
7427;DHT22;3755;59.316;18.092;2024-01-15T03:37:26;-4.50;99.90
7427;DHT22;3755;59.316;18.092;2024-01-15T03:39:53;-4.40;99.90
7427;DHT22;3755;59.316;18.092;2024-01-15T03:42:20;-4.50;99.90
7427;DHT22;3755;59.316;18.092;2024-01-15T03:44:47;-4.50;99.90
7427;DHT22;3755;59.316;18.092;2024-01-15T03:47:14;-4.50;99.90
7427;DHT22;3755;59.316;18.092;2024-01-15T03:49:43;-4.50;99.90
7427;DHT22;3755;59.316;18.092;2024-01-15T03:52:10;-4.50;99.90
7427;DHT22;3755;59.316;18.092;2024-01-15T03:54:37;-4.50;99.90
7427;DHT22;3755;59.316;18.092;2024-01-15T03:57:05;-4.60;99.90
7427;DHT22;3755;59.316;18.092;2024-01-15T03:59:32;-4.60;99.90
7427;DHT22;3755;59.316;18.092;2024-01-15T04:01:59;-4.60;99.90
7427;DHT22;3755;59.316;18.092;2024-01-15T04:04:26;-4.60;99.90
7427;DHT22;3755;59.316;18.092;2024-01-15T04:06:55;-4.70;99.90
7427;DHT22;3755;59.316;18.092;2024-01-15T04:09:22;-4.70;99.90
7427;DHT22;3755;59.316;18.092;2024-01-15T04:11:49;-4.70;99.90
7427;DHT22;3755;59.316;18.092;2024-01-15T04:14:16;-4.70;99.90
7427;DHT22;3755;59.316;18.092;2024-01-15T04:16:43;-4.80;99.90
7427;DHT22;3755;59.316;18.092;2024-01-15T04:19:10;-4.80;99.90
7427;DHT22;3755;59.316;18.092;2024-01-15T04:21:38;-4.80;99.90
7427;DHT22;3755;59.316;18.092;2024-01-15T04:24:06;-4.90;99.90
7427;DHT22;3755;59.316;18.092;2024-01-15T04:26:34;-4.90;99.90
7427;DHT22;3755;59.316;18.092;2024-01-15T04:29:01;-4.70;99.90
7427;DHT22;3755;59.316;18.092;2024-01-15T04:31:28;-4.90;99.90
7427;DHT22;3755;59.316;18.092;2024-01-15T04:33:55;-4.90;99.90
7427;DHT22;3755;59.316;18.092;2024-01-15T04:36:22;-5.00;99.90
7427;DHT22;3755;59.316;18.092;2024-01-15T04:38:49;-4.90;99.90
7427;DHT22;3755;59.316;18.092;2024-01-15T04:41:18;-4.90;99.90
7427;DHT22;3755;59.316;18.092;2024-01-15T04:43:45;-4.90;99.90
7427;DHT22;3755;59.316;18.092;2024-01-15T04:46:13;-4.90;99.90
7427;DHT22;3755;59.316;18.092;2024-01-15T04:48:40;-5.00;99.90
7427;DHT22;3755;59.316;18.092;2024-01-15T04:51:09;-5.00;99.90
7427;DHT22;3755;59.316;18.092;2024-01-15T04:53:36;-5.00;99.90
7427;DHT22;3755;59.316;18.092;2024-01-15T04:56:04;-5.00;99.90
7427;DHT22;3755;59.316;18.092;2024-01-15T04:58:32;-5.00;99.90
7427;DHT22;3755;59.316;18.092;2024-01-15T05:00:59;-5.30;99.90
7427;DHT22;3755;59.316;18.092;2024-01-15T05:03:27;-5.10;99.90
7427;DHT22;3755;59.316;18.092;2024-01-15T05:05:54;-5.10;99.90
7427;DHT22;3755;59.316;18.092;2024-01-15T05:08:21;-5.10;99.90
7427;DHT22;3755;59.316;18.092;2024-01-15T05:10:48;-5.10;99.90
7427;DHT22;3755;59.316;18.092;2024-01-15T05:13:15;-5.00;99.90
7427;DHT22;3755;59.316;18.092;2024-01-15T05:15:44;-5.10;99.90
7427;DHT22;3755;59.316;18.092;2024-01-15T05:18:11;-5.00;99.90
7427;DHT22;3755;59.316;18.092;2024-01-15T05:20:38;-5.00;99.90
7427;DHT22;3755;59.316;18.092;2024-01-15T05:23:05;-5.00;99.90
7427;DHT22;3755;59.316;18.092;2024-01-15T05:25:32;-4.30;99.90
7427;DHT22;3755;59.316;18.092;2024-01-15T05:27:59;-4.90;99.90
7427;DHT22;3755;59.316;18.092;2024-01-15T05:30:26;-4.80;99.90
7427;DHT22;3755;59.316;18.092;2024-01-15T05:32:55;-5.00;99.90
7427;DHT22;3755;59.316;18.092;2024-01-15T05:35:23;-5.00;99.90
7427;DHT22;3755;59.316;18.092;2024-01-15T05:37:50;-5.00;99.90
7427;DHT22;3755;59.316;18.092;2024-01-15T05:40:17;-5.00;99.90
7427;DHT22;3755;59.316;18.092;2024-01-15T05:42:44;-5.00;99.90
7427;DHT22;3755;59.316;18.092;2024-01-15T05:45:11;-5.00;99.90
7427;DHT22;3755;59.316;18.092;2024-01-15T05:47:38;-4.90;99.90
7427;DHT22;3755;59.316;18.092;2024-01-15T05:50:08;-4.90;99.90
7427;DHT22;3755;59.316;18.092;2024-01-15T05:52:35;-5.00;99.90
7427;DHT22;3755;59.316;18.092;2024-01-15T05:55:02;-5.00;99.90
7427;DHT22;3755;59.316;18.092;2024-01-15T05:57:30;-5.00;99.90
7427;DHT22;3755;59.316;18.092;2024-01-15T05:59:57;-5.00;99.90
7427;DHT22;3755;59.316;18.092;2024-01-15T06:02:26;-5.00;99.90
7427;DHT22;3755;59.316;18.092;2024-01-15T06:04:53;-5.00;99.90
7427;DHT22;3755;59.316;18.092;2024-01-15T06:07:22;-4.70;99.90
7427;DHT22;3755;59.316;18.092;2024-01-15T06:09:50;-5.00;99.90
7427;DHT22;3755;59.316;18.092;2024-01-15T06:12:17;-4.80;99.90
7427;DHT22;3755;59.316;18.092;2024-01-15T06:14:44;-5.00;99.90
7427;DHT22;3755;59.316;18.092;2024-01-15T06:17:12;-5.00;99.90
7427;DHT22;3755;59.316;18.092;2024-01-15T06:19:40;-5.00;99.90
7427;DHT22;3755;59.316;18.092;2024-01-15T06:22:07;-5.00;99.90
7427;DHT22;3755;59.316;18.092;2024-01-15T06:24:35;-5.00;99.90
7427;DHT22;3755;59.316;18.092;2024-01-15T06:27:03;-4.90;99.90
7427;DHT22;3755;59.316;18.092;2024-01-15T06:29:31;-5.10;99.90
7427;DHT22;3755;59.316;18.092;2024-01-15T06:31:59;-5.10;99.90
7427;DHT22;3755;59.316;18.092;2024-01-15T06:34:26;-4.40;99.90
7427;DHT22;3755;59.316;18.092;2024-01-15T06:36:53;-5.10;99.90
7427;DHT22;3755;59.316;18.092;2024-01-15T06:39:21;-5.10;99.90
7427;DHT22;3755;59.316;18.092;2024-01-15T06:41:50;-5.10;99.90
7427;DHT22;3755;59.316;18.092;2024-01-15T06:44:20;-5.10;99.90
7427;DHT22;3755;59.316;18.092;2024-01-15T06:46:48;-5.10;99.90
7427;DHT22;3755;59.316;18.092;2024-01-15T06:49:15;-5.10;99.90
7427;DHT22;3755;59.316;18.092;2024-01-15T06:51:43;-5.10;99.90
7427;DHT22;3755;59.316;18.092;2024-01-15T06:54:12;-5.10;99.90
7427;DHT22;3755;59.316;18.092;2024-01-15T06:56:40;-5.10;99.90
7427;DHT22;3755;59.316;18.092;2024-01-15T06:59:09;-5.10;99.90
7427;DHT22;3755;59.316;18.092;2024-01-15T07:01:42;-5.20;99.90
7427;DHT22;3755;59.316;18.092;2024-01-15T07:04:10;-5.10;99.90
7427;DHT22;3755;59.316;18.092;2024-01-15T07:06:37;-4.40;99.90
7427;DHT22;3755;59.316;18.092;2024-01-15T07:09:04;-4.30;99.90
7427;DHT22;3755;59.316;18.092;2024-01-15T07:11:33;-5.10;99.90
7427;DHT22;3755;59.316;18.092;2024-01-15T07:14:00;-5.10;99.90
7427;DHT22;3755;59.316;18.092;2024-01-15T07:16:31;-5.10;99.90
7427;DHT22;3755;59.316;18.092;2024-01-15T07:18:58;-5.20;99.90
7427;DHT22;3755;59.316;18.092;2024-01-15T07:21:26;-5.20;99.90
7427;DHT22;3755;59.316;18.092;2024-01-15T07:23:55;-5.10;99.90
7427;DHT22;3755;59.316;18.092;2024-01-15T07:26:25;-5.20;99.90
7427;DHT22;3755;59.316;18.092;2024-01-15T07:28:52;-4.60;99.90
7427;DHT22;3755;59.316;18.092;2024-01-15T07:31:19;-5.20;99.90
7427;DHT22;3755;59.316;18.092;2024-01-15T07:33:49;-5.10;99.90
7427;DHT22;3755;59.316;18.092;2024-01-15T07:36:18;-5.20;99.90
7427;DHT22;3755;59.316;18.092;2024-01-15T07:38:46;-5.20;99.90
7427;DHT22;3755;59.316;18.092;2024-01-15T07:41:14;-5.20;99.90
7427;DHT22;3755;59.316;18.092;2024-01-15T07:43:41;-5.20;99.90
7427;DHT22;3755;59.316;18.092;2024-01-15T07:46:09;-5.20;99.90
7427;DHT22;3755;59.316;18.092;2024-01-15T07:48:36;-5.20;99.90
7427;DHT22;3755;59.316;18.092;2024-01-15T07:51:07;-5.20;99.90
7427;DHT22;3755;59.316;18.092;2024-01-15T07:53:34;-5.10;99.90
7427;DHT22;3755;59.316;18.092;2024-01-15T07:56:02;-5.20;99.90
7427;DHT22;3755;59.316;18.092;2024-01-15T07:58:34;-5.10;99.90
7427;DHT22;3755;59.316;18.092;2024-01-15T08:01:01;-5.00;99.90
7427;DHT22;3755;59.316;18.092;2024-01-15T08:03:29;-5.20;99.90
7427;DHT22;3755;59.316;18.092;2024-01-15T08:05:58;-5.20;99.90
7427;DHT22;3755;59.316;18.092;2024-01-15T08:08:28;-5.20;99.90
7427;DHT22;3755;59.316;18.092;2024-01-15T08:11:10;-5.10;99.90
7427;DHT22;3755;59.316;18.092;2024-01-15T08:13:37;-5.10;99.90
7427;DHT22;3755;59.316;18.092;2024-01-15T08:16:05;-5.10;99.90
7427;DHT22;3755;59.316;18.092;2024-01-15T08:18:47;-5.10;99.90
7427;DHT22;3755;59.316;18.092;2024-01-15T08:21:23;-5.10;99.90
7427;DHT22;3755;59.316;18.092;2024-01-15T08:23:54;-5.10;99.90
7427;DHT22;3755;59.316;18.092;2024-01-15T08:26:34;-5.10;99.90
7427;DHT22;3755;59.316;18.092;2024-01-15T08:29:05;-5.00;99.90
7427;DHT22;3755;59.316;18.092;2024-01-15T08:31:33;-5.10;99.90
7427;DHT22;3755;59.316;18.092;2024-01-15T08:34:01;-5.10;99.90
7427;DHT22;3755;59.316;18.092;2024-01-15T08:36:28;-5.10;99.90
7427;DHT22;3755;59.316;18.092;2024-01-15T08:38:58;-4.70;99.90
7427;DHT22;3755;59.316;18.092;2024-01-15T08:41:26;-5.10;99.90
7427;DHT22;3755;59.316;18.092;2024-01-15T08:43:53;-5.10;99.90
7427;DHT22;3755;59.316;18.092;2024-01-15T08:46:22;-5.10;99.90
7427;DHT22;3755;59.316;18.092;2024-01-15T08:48:51;-4.80;99.90
7427;DHT22;3755;59.316;18.092;2024-01-15T08:51:18;-5.10;99.90
7427;DHT22;3755;59.316;18.092;2024-01-15T08:53:47;-5.10;99.90
7427;DHT22;3755;59.316;18.092;2024-01-15T08:56:18;-5.10;99.90
7427;DHT22;3755;59.316;18.092;2024-01-15T08:58:48;-5.00;99.90
7427;DHT22;3755;59.316;18.092;2024-01-15T09:01:16;-5.00;99.90
7427;DHT22;3755;59.316;18.092;2024-01-15T09:03:45;-5.00;99.90
7427;DHT22;3755;59.316;18.092;2024-01-15T09:06:15;-5.00;99.90
7427;DHT22;3755;59.316;18.092;2024-01-15T09:08:46;-5.10;99.90
7427;DHT22;3755;59.316;18.092;2024-01-15T09:11:13;-5.10;99.90
7427;DHT22;3755;59.316;18.092;2024-01-15T09:13:42;-5.10;99.90
7427;DHT22;3755;59.316;18.092;2024-01-15T09:16:11;-5.10;99.90
7427;DHT22;3755;59.316;18.092;2024-01-15T09:18:39;-5.10;99.90
7427;DHT22;3755;59.316;18.092;2024-01-15T09:21:07;-5.10;99.90
7427;DHT22;3755;59.316;18.092;2024-01-15T09:23:34;-5.10;99.90
7427;DHT22;3755;59.316;18.092;2024-01-15T09:26:01;-5.10;99.90
7427;DHT22;3755;59.316;18.092;2024-01-15T09:28:29;-5.10;99.90
7427;DHT22;3755;59.316;18.092;2024-01-15T09:31:12;-4.90;99.90
7427;DHT22;3755;59.316;18.092;2024-01-15T09:33:42;-5.00;99.90
7427;DHT22;3755;59.316;18.092;2024-01-15T09:36:10;-5.00;99.90
7427;DHT22;3755;59.316;18.092;2024-01-15T09:38:37;-5.00;99.90
7427;DHT22;3755;59.316;18.092;2024-01-15T09:41:05;-5.00;99.90
7427;DHT22;3755;59.316;18.092;2024-01-15T09:43:32;-5.00;99.90
7427;DHT22;3755;59.316;18.092;2024-01-15T09:46:00;-5.10;99.90
7427;DHT22;3755;59.316;18.092;2024-01-15T09:48:29;-5.00;99.90
7427;DHT22;3755;59.316;18.092;2024-01-15T09:51:01;-5.00;99.90
7427;DHT22;3755;59.316;18.092;2024-01-15T09:53:29;-5.00;99.90
7427;DHT22;3755;59.316;18.092;2024-01-15T09:55:58;-5.10;99.90
7427;DHT22;3755;59.316;18.092;2024-01-15T09:58:25;-5.00;99.90
7427;DHT22;3755;59.316;18.092;2024-01-15T10:00:55;-5.10;99.90
7427;DHT22;3755;59.316;18.092;2024-01-15T10:03:23;-5.00;99.90
7427;DHT22;3755;59.316;18.092;2024-01-15T10:05:51;-5.00;99.90
7427;DHT22;3755;59.316;18.092;2024-01-15T10:08:20;-5.10;99.90
7427;DHT22;3755;59.316;18.092;2024-01-15T10:10:48;-5.10;99.90
7427;DHT22;3755;59.316;18.092;2024-01-15T10:13:16;-4.50;99.90
7427;DHT22;3755;59.316;18.092;2024-01-15T10:15:45;-5.00;99.90
7427;DHT22;3755;59.316;18.092;2024-01-15T10:18:14;-4.90;99.90
7427;DHT22;3755;59.316;18.092;2024-01-15T10:20:41;-4.90;99.90
7427;DHT22;3755;59.316;18.092;2024-01-15T10:23:11;-5.00;99.90
7427;DHT22;3755;59.316;18.092;2024-01-15T10:25:42;-5.00;99.90
7427;DHT22;3755;59.316;18.092;2024-01-15T10:28:09;-5.10;99.90
7427;DHT22;3755;59.316;18.092;2024-01-15T10:30:36;-5.00;99.90
7427;DHT22;3755;59.316;18.092;2024-01-15T10:33:04;-4.90;99.90
7427;DHT22;3755;59.316;18.092;2024-01-15T10:35:32;-4.90;99.90
7427;DHT22;3755;59.316;18.092;2024-01-15T10:38:03;-4.70;99.90
7427;DHT22;3755;59.316;18.092;2024-01-15T10:40:33;-4.70;99.90
7427;DHT22;3755;59.316;18.092;2024-01-15T10:43:01;-4.80;99.90
7427;DHT22;3755;59.316;18.092;2024-01-15T10:45:30;-4.80;99.90
7427;DHT22;3755;59.316;18.092;2024-01-15T10:47:58;-4.80;99.90
7427;DHT22;3755;59.316;18.092;2024-01-15T10:50:29;-4.80;99.90
7427;DHT22;3755;59.316;18.092;2024-01-15T10:53:00;-4.80;99.90
7427;DHT22;3755;59.316;18.092;2024-01-15T10:55:28;-4.80;99.90
7427;DHT22;3755;59.316;18.092;2024-01-15T10:57:57;-4.80;99.90
7427;DHT22;3755;59.316;18.092;2024-01-15T11:00:26;-4.10;99.90
7427;DHT22;3755;59.316;18.092;2024-01-15T11:02:56;-4.70;99.90
7427;DHT22;3755;59.316;18.092;2024-01-15T11:05:33;-4.70;99.90
7427;DHT22;3755;59.316;18.092;2024-01-15T11:08:04;-4.70;99.90
7427;DHT22;3755;59.316;18.092;2024-01-15T11:10:47;-4.80;99.90
7427;DHT22;3755;59.316;18.092;2024-01-15T11:13:20;-4.80;99.90
7427;DHT22;3755;59.316;18.092;2024-01-15T11:16:03;-4.80;99.90
7427;DHT22;3755;59.316;18.092;2024-01-15T11:18:34;-4.70;99.90
7427;DHT22;3755;59.316;18.092;2024-01-15T11:21:22;-4.70;99.90
7427;DHT22;3755;59.316;18.092;2024-01-15T11:23:54;-4.70;99.90
7427;DHT22;3755;59.316;18.092;2024-01-15T11:26:37;-4.60;99.90
7427;DHT22;3755;59.316;18.092;2024-01-15T11:29:11;-4.70;99.90
7427;DHT22;3755;59.316;18.092;2024-01-15T11:32:10;-4.80;99.90
7427;DHT22;3755;59.316;18.092;2024-01-15T11:34:55;-4.80;99.90
7427;DHT22;3755;59.316;18.092;2024-01-15T11:37:24;-4.80;99.90
7427;DHT22;3755;59.316;18.092;2024-01-15T11:39:54;-4.80;99.90
7427;DHT22;3755;59.316;18.092;2024-01-15T11:42:23;-4.80;99.90
7427;DHT22;3755;59.316;18.092;2024-01-15T11:44:52;-4.30;99.90
7427;DHT22;3755;59.316;18.092;2024-01-15T11:50:18;-4.80;99.90
7427;DHT22;3755;59.316;18.092;2024-01-15T11:52:55;-4.80;99.90
7427;DHT22;3755;59.316;18.092;2024-01-15T11:55:33;-4.80;99.90
7427;DHT22;3755;59.316;18.092;2024-01-15T11:58:01;-4.80;99.90
7427;DHT22;3755;59.316;18.092;2024-01-15T12:00:30;-4.90;99.90
7427;DHT22;3755;59.316;18.092;2024-01-15T12:02:59;-4.90;99.90
7427;DHT22;3755;59.316;18.092;2024-01-15T12:05:27;-4.90;99.90
7427;DHT22;3755;59.316;18.092;2024-01-15T12:07:55;-4.90;99.90
7427;DHT22;3755;59.316;18.092;2024-01-15T12:10:22;-4.90;99.90
7427;DHT22;3755;59.316;18.092;2024-01-15T12:12:58;-4.80;99.90
7427;DHT22;3755;59.316;18.092;2024-01-15T12:15:27;-4.90;99.90
7427;DHT22;3755;59.316;18.092;2024-01-15T12:17:58;-4.90;99.90
7427;DHT22;3755;59.316;18.092;2024-01-15T12:20:26;-5.00;99.90
7427;DHT22;3755;59.316;18.092;2024-01-15T12:22:54;-5.00;99.90
7427;DHT22;3755;59.316;18.092;2024-01-15T12:25:22;-5.00;99.90
7427;DHT22;3755;59.316;18.092;2024-01-15T12:27:49;-5.00;99.90
7427;DHT22;3755;59.316;18.092;2024-01-15T12:30:16;-5.00;99.90
7427;DHT22;3755;59.316;18.092;2024-01-15T12:32:44;-5.00;99.90
7427;DHT22;3755;59.316;18.092;2024-01-15T12:35:14;-5.00;99.90
7427;DHT22;3755;59.316;18.092;2024-01-15T12:37:42;-4.50;99.90
7427;DHT22;3755;59.316;18.092;2024-01-15T12:40:11;-5.10;99.90
7427;DHT22;3755;59.316;18.092;2024-01-15T12:42:40;-5.10;99.90
7427;DHT22;3755;59.316;18.092;2024-01-15T12:45:08;-5.10;99.90
7427;DHT22;3755;59.316;18.092;2024-01-15T12:47:36;-5.00;99.90
7427;DHT22;3755;59.316;18.092;2024-01-15T12:50:06;-5.00;99.90
7427;DHT22;3755;59.316;18.092;2024-01-15T12:52:35;-5.00;99.90
7427;DHT22;3755;59.316;18.092;2024-01-15T12:55:04;-5.00;99.90
7427;DHT22;3755;59.316;18.092;2024-01-15T12:57:31;-5.00;99.90
7427;DHT22;3755;59.316;18.092;2024-01-15T12:59:59;-5.00;99.90
7427;DHT22;3755;59.316;18.092;2024-01-15T13:02:26;-5.00;99.90
7427;DHT22;3755;59.316;18.092;2024-01-15T13:04:53;-5.00;99.90
7427;DHT22;3755;59.316;18.092;2024-01-15T13:07:21;-4.80;99.90
7427;DHT22;3755;59.316;18.092;2024-01-15T13:09:49;-5.10;99.90
7427;DHT22;3755;59.316;18.092;2024-01-15T13:12:19;-5.00;99.90
7427;DHT22;3755;59.316;18.092;2024-01-15T13:14:46;-5.00;99.90
7427;DHT22;3755;59.316;18.092;2024-01-15T13:17:13;-5.00;99.90
7427;DHT22;3755;59.316;18.092;2024-01-15T13:19:41;-5.00;99.90
7427;DHT22;3755;59.316;18.092;2024-01-15T13:22:08;-5.10;99.90
7427;DHT22;3755;59.316;18.092;2024-01-15T13:24:36;-5.10;99.90
7427;DHT22;3755;59.316;18.092;2024-01-15T13:27:04;-5.10;99.90
7427;DHT22;3755;59.316;18.092;2024-01-15T13:29:32;-5.10;99.90
7427;DHT22;3755;59.316;18.092;2024-01-15T13:31:59;-5.20;99.90
7427;DHT22;3755;59.316;18.092;2024-01-15T13:34:26;-5.30;99.90
7427;DHT22;3755;59.316;18.092;2024-01-15T13:36:54;-5.30;99.90
7427;DHT22;3755;59.316;18.092;2024-01-15T13:39:21;-5.30;99.90
7427;DHT22;3755;59.316;18.092;2024-01-15T13:41:49;-5.30;99.90
7427;DHT22;3755;59.316;18.092;2024-01-15T13:44:18;-5.30;99.90
7427;DHT22;3755;59.316;18.092;2024-01-15T13:46:45;-5.20;99.90
7427;DHT22;3755;59.316;18.092;2024-01-15T13:49:12;-5.20;99.90
7427;DHT22;3755;59.316;18.092;2024-01-15T13:51:40;-5.30;99.90
7427;DHT22;3755;59.316;18.092;2024-01-15T13:54:07;-5.20;99.90
7427;DHT22;3755;59.316;18.092;2024-01-15T13:56:35;-5.20;99.90
7427;DHT22;3755;59.316;18.092;2024-01-15T13:59:03;-5.00;99.90
7427;DHT22;3755;59.316;18.092;2024-01-15T14:01:36;-5.40;99.90
7427;DHT22;3755;59.316;18.092;2024-01-15T14:04:07;-5.30;99.90
7427;DHT22;3755;59.316;18.092;2024-01-15T14:06:34;-5.40;99.90
7427;DHT22;3755;59.316;18.092;2024-01-15T14:09:00;-5.40;99.90
7427;DHT22;3755;59.316;18.092;2024-01-15T14:11:30;-5.20;99.90
7427;DHT22;3755;59.316;18.092;2024-01-15T14:13:57;-5.50;99.90
7427;DHT22;3755;59.316;18.092;2024-01-15T14:16:24;-5.40;99.90
7427;DHT22;3755;59.316;18.092;2024-01-15T14:18:53;-5.60;99.90
7427;DHT22;3755;59.316;18.092;2024-01-15T14:21:20;-5.60;99.90
7427;DHT22;3755;59.316;18.092;2024-01-15T14:23:47;-5.60;99.90
7427;DHT22;3755;59.316;18.092;2024-01-15T14:26:17;-5.80;99.90
7427;DHT22;3755;59.316;18.092;2024-01-15T14:28:44;-5.50;99.90
7427;DHT22;3755;59.316;18.092;2024-01-15T14:31:14;-5.50;99.90
7427;DHT22;3755;59.316;18.092;2024-01-15T14:34:01;-5.50;99.90
7427;DHT22;3755;59.316;18.092;2024-01-15T14:36:48;-5.50;99.90
7427;DHT22;3755;59.316;18.092;2024-01-15T14:39:30;-4.10;99.90
7427;DHT22;3755;59.316;18.092;2024-01-15T14:42:01;-5.40;99.90
7427;DHT22;3755;59.316;18.092;2024-01-15T14:44:28;-5.40;99.90
7427;DHT22;3755;59.316;18.092;2024-01-15T14:46:56;-5.10;99.90
7427;DHT22;3755;59.316;18.092;2024-01-15T14:49:26;-5.40;99.90
7427;DHT22;3755;59.316;18.092;2024-01-15T14:51:54;-5.40;99.90
7427;DHT22;3755;59.316;18.092;2024-01-15T14:54:21;-5.50;99.90
7427;DHT22;3755;59.316;18.092;2024-01-15T14:56:49;-5.60;99.90
7427;DHT22;3755;59.316;18.092;2024-01-15T14:59:23;-5.70;99.90
7427;DHT22;3755;59.316;18.092;2024-01-15T15:01:50;-5.70;99.90
7427;DHT22;3755;59.316;18.092;2024-01-15T15:04:17;-6.30;99.90
7427;DHT22;3755;59.316;18.092;2024-01-15T15:06:48;-5.20;99.90
7427;DHT22;3755;59.316;18.092;2024-01-15T15:09:15;-5.70;99.90
7427;DHT22;3755;59.316;18.092;2024-01-15T15:11:43;-5.70;99.90
7427;DHT22;3755;59.316;18.092;2024-01-15T15:14:10;-5.70;99.90
7427;DHT22;3755;59.316;18.092;2024-01-15T15:16:39;-5.30;99.90
7427;DHT22;3755;59.316;18.092;2024-01-15T15:19:08;-5.70;99.90
7427;DHT22;3755;59.316;18.092;2024-01-15T15:21:36;-4.90;99.90
7427;DHT22;3755;59.316;18.092;2024-01-15T15:24:06;-5.50;99.90
7427;DHT22;3755;59.316;18.092;2024-01-15T15:26:48;-4.90;99.90
7427;DHT22;3755;59.316;18.092;2024-01-15T15:29:15;-5.60;99.90
7427;DHT22;3755;59.316;18.092;2024-01-15T15:31:43;-5.40;99.90
7427;DHT22;3755;59.316;18.092;2024-01-15T15:34:11;-5.40;99.90
7427;DHT22;3755;59.316;18.092;2024-01-15T15:36:39;-5.40;99.90
7427;DHT22;3755;59.316;18.092;2024-01-15T15:39:09;-5.40;99.90
7427;DHT22;3755;59.316;18.092;2024-01-15T15:41:50;-5.40;99.90
7427;DHT22;3755;59.316;18.092;2024-01-15T15:44:30;-5.40;99.90
7427;DHT22;3755;59.316;18.092;2024-01-15T15:46:59;-5.30;99.90
7427;DHT22;3755;59.316;18.092;2024-01-15T15:49:40;-4.90;99.90
7427;DHT22;3755;59.316;18.092;2024-01-15T15:52:08;-5.30;99.90
7427;DHT22;3755;59.316;18.092;2024-01-15T15:54:37;-5.30;99.90
7427;DHT22;3755;59.316;18.092;2024-01-15T15:57:05;-5.20;99.90